Time;durP1;ratioP1;P1;durP2;ratioP2;P2;SDS_P1;SDS_P2;PMS_P1;PMS_P2;Temp;Humidity;BMP_temperature;BMP_pressure;BME280_temperature;BME280_humidity;BME280_pressure;Samples;Min_cycle;Max_cycle;Signal;HPM_P1;HPM_P2
2021/09/16 00:00:38;;;;;;;2.03;1.92;;;;;;;;;;4699033;30;20206;-85
2021/09/16 00:03:06;;;;;;;1.80;1.70;;;;;;;;;;4699300;30;20209;-85
2021/09/16 00:05:35;;;;;;;1.45;1.35;;;;;;;;;;4699211;30;21071;-85
2021/09/16 00:08:03;;;;;;;1.35;1.30;;;;;;;;;;4699273;30;20606;-84
2021/09/16 00:10:30;;;;;;;1.80;1.70;;;;;;;;;;4698974;30;20210;-85
2021/09/16 00:12:57;;;;;;;2.03;1.92;;;;;;;;;;4699192;30;20219;-85
2021/09/16 00:15:25;;;;;;;1.88;1.77;;;;;;;;;;4696207;30;20227;-85
2021/09/16 00:17:52;;;;;;;2.10;1.90;;;;;;;;;;4681880;30;20256;-86
2021/09/16 00:20:20;;;;;;;1.88;1.77;;;;;;;;;;4681829;30;20203;-85
2021/09/16 00:22:49;;;;;;;1.80;1.67;;;;;;;;;;4681632;30;20200;-86
2021/09/16 00:25:16;;;;;;;3.22;2.35;;;;;;;;;;4681857;30;20207;-85
2021/09/16 00:27:44;;;;;;;1.70;1.60;;;;;;;;;;4681671;30;20231;-85
2021/09/16 00:30:12;;;;;;;1.67;1.58;;;;;;;;;;4682103;30;20225;-86
2021/09/16 00:32:40;;;;;;;2.65;2.45;;;;;;;;;;4681570;30;20215;-86
2021/09/16 00:35:14;;;;;;;3.70;3.40;;;;;;;;;;4684020;30;20283;-85
2021/09/16 00:37:41;;;;;;;2.60;2.40;;;;;;;;;;4694860;30;20262;-86
2021/09/16 00:40:13;;;;;;;1.85;1.73;;;;;;;;;;4702531;30;20561;-85
2021/09/16 00:42:41;;;;;;;2.47;2.28;;;;;;;;;;4702559;30;20193;-84
2021/09/16 00:45:09;;;;;;;2.30;2.10;;;;;;;;;;4702073;30;20198;-85
2021/09/16 00:47:46;;;;;;;2.63;2.42;;;;;;;;;;4701805;30;20241;-85
2021/09/16 00:50:14;;;;;;;2.00;1.90;;;;;;;;;;4701749;30;20222;-85
2021/09/16 00:52:42;;;;;;;1.70;1.60;;;;;;;;;;4701754;30;20195;-85
2021/09/16 00:55:11;;;;;;;2.45;2.30;;;;;;;;;;4701720;30;20242;-86
2021/09/16 00:57:40;;;;;;;2.20;2.10;;;;;;;;;;4701394;30;20730;-85
2021/09/16 01:00:10;;;;;;;1.98;1.77;;;;;;;;;;4701785;30;20201;-86
2021/09/16 01:02:38;;;;;;;2.90;2.70;;;;;;;;;;4701749;30;20233;-86
2021/09/16 01:05:07;;;;;;;2.78;2.00;;;;;;;;;;4701500;30;20214;-85
2021/09/16 01:07:36;;;;;;;2.38;2.28;;;;;;;;;;4701359;30;20246;-85
2021/09/16 01:10:05;;;;;;;1.55;1.45;;;;;;;;;;4701825;30;20297;-85
2021/09/16 01:12:34;;;;;;;1.27;1.25;;;;;;;;;;4701666;30;20195;-85
2021/09/16 01:15:02;;;;;;;2.53;2.33;;;;;;;;;;4701420;30;20690;-85
2021/09/16 01:17:29;;;;;;;3.20;2.88;;;;;;;;;;4701146;30;20234;-85
2021/09/16 01:19:56;;;;;;;3.95;2.60;;;;;;;;;;4701434;30;20203;-84
2021/09/16 01:22:25;;;;;;;2.70;2.50;;;;;;;;;;4701288;30;20214;-85
2021/09/16 01:24:53;;;;;;;3.03;2.83;;;;;;;;;;4701062;30;20199;-85
2021/09/16 01:27:21;;;;;;;6.13;2.85;;;;;;;;;;4701248;30;20718;-85
2021/09/16 01:29:48;;;;;;;1.60;1.50;;;;;;;;;;4701103;30;20222;-85
2021/09/16 01:32:15;;;;;;;1.90;1.80;;;;;;;;;;4701268;30;20210;-85
2021/09/16 01:34:43;;;;;;;1.60;1.50;;;;;;;;;;4701153;30;20218;-85
2021/09/16 01:37:10;;;;;;;3.08;1.80;;;;;;;;;;4700715;30;20739;-85
2021/09/16 01:39:38;;;;;;;2.38;2.17;;;;;;;;;;4701136;30;20230;-85
2021/09/16 01:42:08;;;;;;;2.40;2.20;;;;;;;;;;4701111;30;20210;-84
2021/09/16 01:44:35;;;;;;;1.70;1.60;;;;;;;;;;4686289;30;20607;-85
2021/09/16 01:47:03;;;;;;;2.03;1.80;;;;;;;;;;4684981;30;20238;-86
2021/09/16 01:49:31;;;;;;;2.30;2.15;;;;;;;;;;4683839;30;20321;-85
2021/09/16 01:51:59;;;;;;;1.67;1.55;;;;;;;;;;4683810;30;20219;-84
2021/09/16 01:54:27;;;;;;;2.90;2.65;;;;;;;;;;4692520;30;20697;-85
2021/09/16 01:56:54;;;;;;;3.42;3.20;;;;;;;;;;4700485;30;20235;-85
2021/09/16 01:59:23;;;;;;;3.50;3.20;;;;;;;;;;4700833;30;20594;-85
2021/09/16 02:01:50;;;;;;;3.25;2.95;;;;;;;;;;4691151;30;20219;-85
2021/09/16 02:04:18;;;;;;;3.72;3.30;;;;;;;;;;4685716;30;20222;-84
2021/09/16 02:06:45;;;;;;;5.90;3.53;;;;;;;;;;4700614;30;20754;-85
2021/09/16 02:09:13;;;;;;;3.15;2.92;;;;;;;;;;4700471;30;20592;-85
2021/09/16 02:11:40;;;;;;;2.30;2.15;;;;;;;;;;4706055;30;20701;-85
2021/09/16 02:14:08;;;;;;;3.55;3.35;;;;;;;;;;4714303;30;20210;-85
2021/09/16 02:16:37;;;;;;;2.92;2.67;;;;;;;;;;4714673;30;20253;-86
2021/09/16 02:19:05;;;;;;;2.80;2.60;;;;;;;;;;4696836;30;20215;-87
2021/09/16 02:21:33;;;;;;;3.38;2.75;;;;;;;;;;4695939;30;20226;-87
2021/09/16 02:24:02;;;;;;;3.63;2.60;;;;;;;;;;4696364;30;20294;-85
2021/09/16 02:26:29;;;;;;;2.10;1.90;;;;;;;;;;4700431;30;20242;-86
2021/09/16 02:28:57;;;;;;;3.53;2.53;;;;;;;;;;4700803;30;20225;-86
2021/09/16 02:31:24;;;;;;;2.40;2.20;;;;;;;;;;4693291;30;20230;-86
2021/09/16 02:33:53;;;;;;;1.35;1.35;;;;;;;;;;4683054;30;20192;-85
2021/09/16 02:36:21;;;;;;;2.25;2.10;;;;;;;;;;4682714;30;20231;-85
2021/09/16 02:38:48;;;;;;;2.60;2.40;;;;;;;;;;4683023;30;20207;-87
2021/09/16 02:41:16;;;;;;;2.78;1.88;;;;;;;;;;4688857;30;20219;-87
2021/09/16 02:43:43;;;;;;;2.13;1.95;;;;;;;;;;4694989;30;20218;-87
2021/09/16 02:46:11;;;;;;;1.80;1.70;;;;;;;;;;4699168;30;20643;-87
2021/09/16 02:48:39;;;;;;;3.35;2.05;;;;;;;;;;4717150;30;20214;-87
2021/09/16 02:51:08;;;;;;;1.98;1.75;;;;;;;;;;4717123;30;20220;-87
2021/09/16 02:53:36;;;;;;;1.88;1.77;;;;;;;;;;4717289;30;20214;-87
2021/09/16 02:56:03;;;;;;;2.05;1.85;;;;;;;;;;4716932;30;20724;-86
2021/09/16 02:58:31;;;;;;;1.83;1.73;;;;;;;;;;4717301;30;20238;-86
2021/09/16 03:00:58;;;;;;;2.55;1.70;;;;;;;;;;4717514;30;20197;-87
2021/09/16 03:03:26;;;;;;;1.55;1.42;;;;;;;;;;4717509;30;20201;-87
2021/09/16 03:05:54;;;;;;;1.73;1.60;;;;;;;;;;4717562;30;20213;-87
2021/09/16 03:08:22;;;;;;;2.85;1.83;;;;;;;;;;4717210;30;20233;-87
2021/09/16 03:10:50;;;;;;;1.65;1.55;;;;;;;;;;4716641;30;20226;-87
2021/09/16 03:13:17;;;;;;;1.90;1.80;;;;;;;;;;4716915;30;20206;-87
2021/09/16 03:15:45;;;;;;;1.27;1.17;;;;;;;;;;4717294;30;20220;-84
2021/09/16 03:18:12;;;;;;;1.52;1.42;;;;;;;;;;4717529;30;20701;-86
2021/09/16 03:20:40;;;;;;;1.73;1.63;;;;;;;;;;4696301;30;20215;-85
2021/09/16 03:23:07;;;;;;;1.75;1.65;;;;;;;;;;4692206;30;20219;-86
2021/09/16 03:25:36;;;;;;;2.22;1.85;;;;;;;;;;4700048;30;20590;-86
2021/09/16 03:28:05;;;;;;;2.72;1.73;;;;;;;;;;4700765;30;20312;-84
2021/09/16 03:30:32;;;;;;;5.28;2.45;;;;;;;;;;4699757;30;20215;-86
2021/09/16 03:33:00;;;;;;;2.45;2.25;;;;;;;;;;4700087;30;20210;-85
2021/09/16 03:35:27;;;;;;;2.15;1.83;;;;;;;;;;4699854;30;20218;-85
2021/09/16 03:37:56;;;;;;;2.65;2.45;;;;;;;;;;4699499;30;20622;-85
2021/09/16 03:40:24;;;;;;;2.20;2.00;;;;;;;;;;4700329;30;20667;-85
2021/09/16 03:42:52;;;;;;;2.10;1.95;;;;;;;;;;4700210;30;20221;-85
2021/09/16 03:45:20;;;;;;;2.00;1.90;;;;;;;;;;4702210;30;20226;-85
2021/09/16 03:47:48;;;;;;;2.30;1.90;;;;;;;;;;4709634;30;20234;-85
2021/09/16 03:50:15;;;;;;;2.30;2.08;;;;;;;;;;4692590;30;20223;-85
2021/09/16 03:52:43;;;;;;;2.15;2.05;;;;;;;;;;4684869;30;20231;-84
2021/09/16 03:55:11;;;;;;;1.55;1.45;;;;;;;;;;4691258;30;20252;-85
2021/09/16 03:57:38;;;;;;;2.00;1.90;;;;;;;;;;4701883;30;20244;-85
2021/09/16 04:00:09;;;;;;;2.75;2.53;;;;;;;;;;4686147;30;20215;-86
2021/09/16 04:02:37;;;;;;;3.08;2.75;;;;;;;;;;4700366;30;20648;-85
2021/09/16 04:05:05;;;;;;;4.07;3.67;;;;;;;;;;4715293;30;20197;-84
2021/09/16 04:07:33;;;;;;;3.30;3.00;;;;;;;;;;4691346;30;20231;-85
2021/09/16 04:10:00;;;;;;;2.75;2.55;;;;;;;;;;4684837;30;20206;-85
2021/09/16 04:12:28;;;;;;;2.47;2.28;;;;;;;;;;4715822;30;20206;-85
2021/09/16 04:14:55;;;;;;;1.98;1.88;;;;;;;;;;4719844;30;20214;-85
2021/09/16 04:17:24;;;;;;;3.25;2.63;;;;;;;;;;4719572;30;20233;-86
2021/09/16 04:19:52;;;;;;;2.75;2.55;;;;;;;;;;4719498;30;20214;-86
2021/09/16 04:22:19;;;;;;;4.53;3.00;;;;;;;;;;4719900;30;20221;-85
2021/09/16 04:24:47;;;;;;;3.83;3.30;;;;;;;;;;4705177;30;20211;-86
2021/09/16 04:27:14;;;;;;;3.78;3.47;;;;;;;;;;4702123;30;20750;-87
2021/09/16 04:29:42;;;;;;;3.53;3.22;;;;;;;;;;4702398;30;20198;-84
2021/09/16 04:32:11;;;;;;;3.92;3.63;;;;;;;;;;4703646;30;20202;-84
2021/09/16 04:34:39;;;;;;;3.78;3.30;;;;;;;;;;4691989;30;20215;-85
2021/09/16 04:37:07;;;;;;;2.92;2.72;;;;;;;;;;4698090;30;20238;-83
2021/09/16 04:39:35;;;;;;;3.35;3.05;;;;;;;;;;4689885;30;20549;-84
2021/09/16 04:42:02;;;;;;;3.42;2.92;;;;;;;;;;4684932;30;20227;-84
2021/09/16 04:45:18;;;;;;;3.22;2.92;;;;;;;;;;4689124;30;20233;-86
2021/09/16 04:47:47;;;;;;;3.42;3.13;;;;;;;;;;4688116;30;20591;-86
2021/09/16 04:50:16;;;;;;;2.58;2.35;;;;;;;;;;4701895;30;20206;-86
2021/09/16 04:52:46;;;;;;;3.28;2.95;;;;;;;;;;4701891;30;20568;-86
2021/09/16 04:55:14;;;;;;;2.95;2.75;;;;;;;;;;4701713;30;20733;-85
2021/09/16 04:57:41;;;;;;;3.00;2.42;;;;;;;;;;4702032;30;20242;-86
2021/09/16 05:00:10;;;;;;;3.53;2.40;;;;;;;;;;4701853;30;20199;-86
2021/09/16 05:02:41;;;;;;;2.13;1.98;;;;;;;;;;4701784;30;20590;-86
2021/09/16 05:05:10;;;;;;;1.95;1.80;;;;;;;;;;4702041;30;20209;-85
2021/09/16 05:07:39;;;;;;;1.98;1.60;;;;;;;;;;4700316;30;20269;-86
2021/09/16 05:10:09;;;;;;;2.28;1.63;;;;;;;;;;4701689;30;20234;-86
2021/09/16 05:12:36;;;;;;;1.95;1.85;;;;;;;;;;4701242;30;20286;-86
2021/09/16 05:15:04;;;;;;;2.95;2.05;;;;;;;;;;4700408;30;20222;-86
2021/09/16 05:17:32;;;;;;;2.20;2.10;;;;;;;;;;4700972;30;20238;-86
2021/09/16 05:20:00;;;;;;;2.28;1.80;;;;;;;;;;4701108;30;20210;-86
2021/09/16 05:22:28;;;;;;;1.70;1.60;;;;;;;;;;4692847;30;20211;-85
2021/09/16 05:25:03;;;;;;;1.80;1.60;;;;;;;;;;4685011;30;20583;-86
2021/09/16 05:27:36;;;;;;;3.67;2.67;;;;;;;;;;4689572;30;20234;-86
2021/09/16 05:30:05;;;;;;;3.90;2.95;;;;;;;;;;4692780;30;20218;-84
2021/09/16 05:32:35;;;;;;;2.42;2.22;;;;;;;;;;4700932;30;20195;-86
2021/09/16 05:35:03;;;;;;;1.73;1.63;;;;;;;;;;4701766;30;20215;-86
2021/09/16 05:37:30;;;;;;;2.03;1.90;;;;;;;;;;4718062;30;20241;-87
2021/09/16 05:40:01;;;;;;;2.45;2.25;;;;;;;;;;4719985;30;20214;-87
2021/09/16 05:42:33;;;;;;;1.92;1.83;;;;;;;;;;4702325;30;20199;-86
2021/09/16 05:45:02;;;;;;;2.10;1.95;;;;;;;;;;4705493;30;20203;-85
2021/09/16 05:47:38;;;;;;;1.55;1.45;;;;;;;;;;4718843;30;20685;-86
2021/09/16 05:50:07;;;;;;;1.95;1.80;;;;;;;;;;4719825;30;20301;-87
2021/09/16 05:52:36;;;;;;;1.67;1.58;;;;;;;;;;4714032;30;20627;-84
2021/09/16 05:55:13;;;;;;;2.15;2.00;;;;;;;;;;4701845;30;20214;-86
2021/09/16 06:01:22;;;;;;;2.55;2.35;;;;;;;;;;4684943;30;20214;-85
2021/09/16 06:03:53;;;;;;;1.80;1.70;;;;;;;;;;4684758;30;20289;-87
2021/09/16 06:06:23;;;;;;;2.50;1.70;;;;;;;;;;4684018;30;20544;-87
2021/09/16 06:08:52;;;;;;;2.00;1.80;;;;;;;;;;4689489;30;20239;-88
2021/09/16 06:11:22;;;;;;;1.92;1.83;;;;;;;;;;4700986;30;20297;-85
2021/09/16 06:14:00;;;;;;;1.60;1.50;;;;;;;;;;4686965;30;20660;-86
2021/09/16 06:16:34;;;;;;;1.88;1.60;;;;;;;;;;4683904;30;20629;-87
2021/09/16 06:19:09;;;;;;;4.82;1.88;;;;;;;;;;4683899;30;20714;-86
2021/09/16 06:22:18;;;;;;;1.45;1.35;;;;;;;;;;4684148;30;20703;-86
2021/09/16 06:25:01;;;;;;;1.90;1.23;;;;;;;;;;4684014;30;20614;-86
2021/09/16 06:27:43;;;;;;;1.35;1.25;;;;;;;;;;4684191;30;20222;-87
2021/09/16 06:30:13;;;;;;;2.95;1.50;;;;;;;;;;4684474;30;20207;-88
2021/09/16 06:32:48;;;;;;;2.10;1.90;;;;;;;;;;4683799;30;20192;-87
2021/09/16 06:35:17;;;;;;;2.03;1.60;;;;;;;;;;4684047;30;20256;-86
2021/09/16 06:37:52;;;;;;;1.75;1.65;;;;;;;;;;4693522;30;20250;-84
2021/09/16 06:40:35;;;;;;;1.33;1.33;;;;;;;;;;4701601;30;20201;-85
2021/09/16 06:43:05;;;;;;;1.80;1.70;;;;;;;;;;4701309;30;20762;-85
2021/09/16 06:45:45;;;;;;;1.95;1.85;;;;;;;;;;4700744;30;20600;-88
2021/09/16 06:48:21;;;;;;;1.63;1.33;;;;;;;;;;4701398;30;20300;-87
2021/09/16 06:50:52;;;;;;;2.00;1.73;;;;;;;;;;4701108;30;20746;-84
2021/09/16 06:53:21;;;;;;;1.92;1.83;;;;;;;;;;4701443;30;20222;-86
2021/09/16 06:55:51;;;;;;;1.95;1.80;;;;;;;;;;4701064;30;20202;-86
2021/09/16 06:58:41;;;;;;;1.50;1.40;;;;;;;;;;4701115;30;20270;-86
2021/09/16 07:01:37;;;;;;;1.80;1.70;;;;;;;;;;4701127;30;20289;-87
2021/09/16 07:04:33;;;;;;;1.75;1.65;;;;;;;;;;4700636;30;20206;-87
2021/09/16 07:07:04;;;;;;;1.27;1.27;;;;;;;;;;4701239;30;20568;-86
2021/09/16 07:09:41;;;;;;;1.00;0.95;;;;;;;;;;4701835;30;20671;-86
2021/09/16 07:12:51;;;;;;;1.63;1.35;;;;;;;;;;4700844;30;20221;-87
2021/09/16 07:15:26;;;;;;;1.25;1.25;;;;;;;;;;4698490;30;20207;-86
2021/09/16 07:18:00;;;;;;;2.13;1.55;;;;;;;;;;4700705;30;20234;-87
2021/09/16 07:20:27;;;;;;;1.30;1.30;;;;;;;;;;4689115;30;20229;-88
2021/09/16 07:22:55;;;;;;;2.17;1.98;;;;;;;;;;4696870;30;20212;-87
2021/09/16 07:25:35;;;;;;;2.92;2.10;;;;;;;;;;4700439;30;20199;-86
2021/09/16 07:28:11;;;;;;;5.25;4.85;;;;;;;;;;4700081;30;20321;-87
2021/09/16 07:30:40;;;;;;;3.15;2.95;;;;;;;;;;4700401;30;20192;-86
2021/09/16 07:33:08;;;;;;;1.67;1.50;;;;;;;;;;4700535;30;20211;-87
2021/09/16 07:35:36;;;;;;;2.10;1.98;;;;;;;;;;4700115;30;20221;-88
2021/09/16 07:38:19;;;;;;;1.70;1.60;;;;;;;;;;4699586;30;20269;-86
2021/09/16 07:40:50;;;;;;;1.55;1.42;;;;;;;;;;4700074;30;20198;-86
2021/09/16 07:43:34;;;;;;;0.95;0.95;;;;;;;;;;4703348;30;20284;-86
2021/09/16 07:46:28;;;;;;;0.93;0.93;;;;;;;;;;4705954;30;20202;-87
2021/09/16 07:49:15;;;;;;;1.63;1.38;;;;;;;;;;4705894;30;20224;-88
2021/09/16 07:52:08;;;;;;;1.13;1.13;;;;;;;;;;4705810;30;20216;-87
2021/09/16 07:55:36;;;;;;;2.22;1.52;;;;;;;;;;4705848;30;20190;-88
2021/09/16 07:58:26;;;;;;;1.55;1.45;;;;;;;;;;4706506;30;20265;-87
2021/09/16 08:01:06;;;;;;;2.08;1.63;;;;;;;;;;4705849;30;20281;-88
2021/09/16 08:03:45;;;;;;;2.33;1.63;;;;;;;;;;4705893;30;20187;-84
2021/09/16 08:06:17;;;;;;;1.67;1.30;;;;;;;;;;4706505;30;20206;-86
2021/09/16 08:08:47;;;;;;;2.05;1.83;;;;;;;;;;4706393;30;20194;-85
2021/09/16 08:11:21;;;;;;;1.92;1.83;;;;;;;;;;4703560;30;20211;-86
2021/09/16 08:13:50;;;;;;;1.38;1.27;;;;;;;;;;4690119;30;20203;-86
2021/09/16 08:16:24;;;;;;;1.23;1.23;;;;;;;;;;4690030;30;20591;-87
2021/09/16 08:18:53;;;;;;;2.30;1.60;;;;;;;;;;4695433;30;20242;-86
2021/09/16 08:21:22;;;;;;;3.08;2.70;;;;;;;;;;4696057;30;20306;-84
2021/09/16 08:23:59;;;;;;;2.00;1.60;;;;;;;;;;4689913;30;20219;-85
2021/09/16 08:26:33;;;;;;;2.15;1.83;;;;;;;;;;4706411;30;20628;-87
2021/09/16 08:29:05;;;;;;;2.65;2.42;;;;;;;;;;4706056;30;20199;-86
2021/09/16 08:31:39;;;;;;;1.70;1.60;;;;;;;;;;4703499;30;20207;-85
2021/09/16 08:34:12;;;;;;;1.60;1.50;;;;;;;;;;4705785;30;20198;-85
2021/09/16 08:37:05;;;;;;;1.85;1.50;;;;;;;;;;4704654;30;20683;-87
2021/09/16 08:39:39;;;;;;;2.95;1.80;;;;;;;;;;4706966;30;20240;-86
2021/09/16 08:42:07;;;;;;;1.73;1.63;;;;;;;;;;4723509;30;20201;-85
2021/09/16 08:44:44;;;;;;;1.23;1.20;;;;;;;;;;4706552;30;20194;-85
2021/09/16 08:47:20;;;;;;;1.65;1.55;;;;;;;;;;4690003;30;20241;-87
2021/09/16 08:50:05;;;;;;;1.25;1.10;;;;;;;;;;4705255;30;20206;-87
2021/09/16 08:52:37;;;;;;;2.53;1.45;;;;;;;;;;4695959;30;20694;-88
2021/09/16 08:55:42;;;;;;;2.00;1.70;;;;;;;;;;4703435;30;20214;-88
2021/09/16 08:58:17;;;;;;;0.77;0.77;;;;;;;;;;4702871;30;20230;-88
2021/09/16 09:00:57;;;;;;;1.77;1.20;;;;;;;;;;4701996;30;20708;-90
2021/09/16 09:03:26;;;;;;;1.17;1.17;;;;;;;;;;4702714;30;20280;-87
2021/09/16 09:06:32;;;;;;;1.20;1.10;;;;;;;;;;4702634;30;20281;-89
2021/09/16 09:09:31;;;;;;;1.65;1.55;;;;;;;;;;4685093;30;20290;-88
2021/09/16 09:12:24;;;;;;;4.50;1.60;;;;;;;;;;4694276;30;20281;-89
2021/09/16 09:15:16;;;;;;;2.90;1.65;;;;;;;;;;4701814;30;20215;-89
2021/09/16 09:18:05;;;;;;;2.38;1.30;;;;;;;;;;4687595;30;20245;-88
2021/09/16 09:20:33;;;;;;;1.10;1.10;;;;;;;;;;4684614;30;20725;-89
2021/09/16 09:23:23;;;;;;;1.08;1.08;;;;;;;;;;4685334;30;20211;-88
2021/09/16 09:25:50;;;;;;;5.15;1.48;;;;;;;;;;4686331;30;20215;-88
2021/09/16 09:28:32;;;;;;;1.17;1.08;;;;;;;;;;4685632;30;20232;-88
2021/09/16 09:31:03;;;;;;;1.20;1.10;;;;;;;;;;4685036;30;20658;-87
2021/09/16 09:33:32;;;;;;;1.20;1.10;;;;;;;;;;4685023;30;20224;-87
2021/09/16 09:36:12;;;;;;;1.33;1.33;;;;;;;;;;4684604;30;20195;-88
2021/09/16 09:39:08;;;;;;;1.10;1.10;;;;;;;;;;4684260;30;20250;-87
2021/09/16 09:41:38;;;;;;;1.30;1.10;;;;;;;;;;4653545;30;20215;-87
2021/09/16 09:44:10;;;;;;;1.17;1.13;;;;;;;;;;4685190;30;20282;-88
2021/09/16 09:46:46;;;;;;;0.85;0.85;;;;;;;;;;4684506;30;20718;-88
2021/09/16 09:49:16;;;;;;;1.00;1.00;;;;;;;;;;4684517;30;20230;-89
2021/09/16 09:51:48;;;;;;;1.08;1.08;;;;;;;;;;4684409;30;20558;-89
2021/09/16 09:54:29;;;;;;;1.48;1.20;;;;;;;;;;4685500;30;20242;-88
2021/09/16 09:57:16;;;;;;;0.93;0.90;;;;;;;;;;4701593;30;20296;-87
2021/09/16 10:00:12;;;;;;;1.40;1.30;;;;;;;;;;4701855;30;20227;-90
2021/09/16 10:02:50;;;;;;;1.15;1.10;;;;;;;;;;4702199;30;20219;-88
2021/09/16 10:05:23;;;;;;;1.73;0.90;;;;;;;;;;4701449;30;20630;-88
2021/09/16 10:07:52;;;;;;;1.83;1.23;;;;;;;;;;4701827;30;20238;-87
2021/09/16 10:10:22;;;;;;;2.15;1.10;;;;;;;;;;4704936;30;20222;-87
2021/09/16 10:12:53;;;;;;;0.80;0.80;;;;;;;;;;4704975;30;20210;-88
2021/09/16 10:15:23;;;;;;;1.20;1.10;;;;;;;;;;4703087;30;20685;-87
2021/09/16 10:17:53;;;;;;;1.13;1.02;;;;;;;;;;4686277;30;20227;-88
2021/09/16 10:20:23;;;;;;;1.10;1.00;;;;;;;;;;4683908;30;20241;-89
2021/09/16 10:22:54;;;;;;;2.38;0.90;;;;;;;;;;4683734;30;20216;-88
2021/09/16 10:25:26;;;;;;;1.38;1.30;;;;;;;;;;4683512;30;20219;-89
2021/09/16 10:27:59;;;;;;;1.17;1.10;;;;;;;;;;4683165;30;20239;-88
2021/09/16 10:30:41;;;;;;;1.48;1.10;;;;;;;;;;4683583;30;20248;-88
2021/09/16 10:33:15;;;;;;;1.13;1.05;;;;;;;;;;4683604;30;20695;-88
2021/09/16 10:35:46;;;;;;;1.10;1.00;;;;;;;;;;4683652;30;20705;-88
2021/09/16 10:38:27;;;;;;;1.10;1.10;;;;;;;;;;4683192;30;20246;-87
2021/09/16 10:41:21;;;;;;;1.10;1.00;;;;;;;;;;4682880;30;20227;-88
2021/09/16 10:43:52;;;;;;;1.23;1.08;;;;;;;;;;4683224;30;20233;-89
2021/09/16 10:46:30;;;;;;;1.38;1.27;;;;;;;;;;4683279;30;20215;-90
2021/09/16 10:49:26;;;;;;;1.00;1.00;;;;;;;;;;4683342;30;20211;-88
2021/09/16 10:51:56;;;;;;;1.60;1.02;;;;;;;;;;4698810;30;20282;-88
2021/09/16 10:54:42;;;;;;;1.38;1.20;;;;;;;;;;4696620;30;20211;-89
2021/09/16 10:57:13;;;;;;;1.00;0.90;;;;;;;;;;4683043;30;20281;-87
2021/09/16 11:00:17;;;;;;;1.08;1.08;;;;;;;;;;4683644;30;20227;-88
2021/09/16 11:03:12;;;;;;;1.02;1.02;;;;;;;;;;4683112;30;20241;-88
2021/09/16 11:05:53;;;;;;;1.08;1.08;;;;;;;;;;4696888;30;20594;-89
2021/09/16 11:08:23;;;;;;;1.58;1.00;;;;;;;;;;4700100;30;20241;-89
2021/09/16 11:10:58;;;;;;;1.27;1.05;;;;;;;;;;4700361;30;20234;-88
2021/09/16 11:13:57;;;;;;;2.92;2.35;;;;;;;;;;4700181;30;20299;-89
2021/09/16 11:16:27;;;;;;;0.93;0.93;;;;;;;;;;4683428;30;20680;-87
2021/09/16 11:19:05;;;;;;;1.00;1.00;;;;;;;;;;4686876;30;20215;-87
2021/09/16 11:21:33;;;;;;;1.30;1.20;;;;;;;;;;4699643;30;20269;-88
2021/09/16 11:24:05;;;;;;;1.60;1.27;;;;;;;;;;4699338;30;20297;-88
2021/09/16 11:26:33;;;;;;;1.23;1.23;;;;;;;;;;4698453;30;20226;-89
2021/09/16 11:29:06;;;;;;;2.00;1.90;;;;;;;;;;4699988;30;20237;-87
2021/09/16 11:31:33;;;;;;;2.22;2.05;;;;;;;;;;4695432;30;20207;-89
2021/09/16 11:34:20;;;;;;;1.40;1.30;;;;;;;;;;4695973;30;20675;-88
2021/09/16 11:37:09;;;;;;;1.27;1.27;;;;;;;;;;4696742;30;20226;-91
2021/09/16 11:39:38;;;;;;;1.40;1.30;;;;;;;;;;4699616;30;20650;-89
2021/09/16 11:42:14;;;;;;;1.20;1.10;;;;;;;;;;4700047;30;20234;-86
2021/09/16 11:45:07;;;;;;;1.10;1.00;;;;;;;;;;4702263;30;20292;-85
2021/09/16 11:47:41;;;;;;;0.82;0.82;;;;;;;;;;4705919;30;20226;-86
2021/09/16 11:50:19;;;;;;;1.20;1.20;;;;;;;;;;4709321;30;20213;-87
2021/09/16 11:52:47;;;;;;;2.28;2.08;;;;;;;;;;4707502;30;20240;-89
2021/09/16 11:55:16;;;;;;;2.03;1.52;;;;;;;;;;4704364;30;20293;-87
2021/09/16 11:58:03;;;;;;;1.63;1.52;;;;;;;;;;4700148;30;20308;-90
2021/09/16 12:00:37;;;;;;;1.80;1.67;;;;;;;;;;4687290;30;20214;-86
2021/09/16 12:03:06;;;;;;;1.42;1.33;;;;;;;;;;4694565;30;20214;-88
2021/09/16 12:05:40;;;;;;;1.92;1.73;;;;;;;;;;4696102;30;20203;-89
2021/09/16 12:08:09;;;;;;;1.55;1.45;;;;;;;;;;4699316;30;20230;-86
2021/09/16 12:10:51;;;;;;;1.65;1.35;;;;;;;;;;4698957;30;20220;-86
2021/09/16 12:13:22;;;;;;;1.60;1.50;;;;;;;;;;4706982;30;20206;-88
2021/09/16 12:16:06;;;;;;;3.10;1.85;;;;;;;;;;4707961;30;20302;-86
2021/09/16 12:18:35;;;;;;;1.70;1.60;;;;;;;;;;4713473;30;20232;-87
2021/09/16 12:21:03;;;;;;;1.50;1.40;;;;;;;;;;4700114;30;20289;-86
2021/09/16 12:23:31;;;;;;;2.10;2.00;;;;;;;;;;4700938;30;20199;-84
2021/09/16 12:26:02;;;;;;;1.60;1.50;;;;;;;;;;4699266;30;20198;-86
2021/09/16 12:28:31;;;;;;;1.40;1.30;;;;;;;;;;4698812;30;20226;-87
2021/09/16 12:31:07;;;;;;;4.50;1.70;;;;;;;;;;4701656;30;20195;-87
2021/09/16 12:33:39;;;;;;;1.60;1.50;;;;;;;;;;4701319;30;20564;-86
2021/09/16 12:36:17;;;;;;;2.10;2.00;;;;;;;;;;4694636;30;20683;-86
2021/09/16 12:38:47;;;;;;;2.10;2.00;;;;;;;;;;4701968;30;20606;-87
2021/09/16 12:41:31;;;;;;;1.98;1.88;;;;;;;;;;4702401;30;20229;-86
2021/09/16 12:44:03;;;;;;;1.70;1.50;;;;;;;;;;4708613;30;20761;-87
2021/09/16 12:46:40;;;;;;;1.38;1.30;;;;;;;;;;4707558;30;20238;-87
2021/09/16 12:49:08;;;;;;;2.13;2.00;;;;;;;;;;4702170;30;20580;-86
2021/09/16 12:51:36;;;;;;;1.92;1.83;;;;;;;;;;4702203;30;20215;-85
2021/09/16 12:54:04;;;;;;;1.90;1.80;;;;;;;;;;4698539;30;20670;-87
2021/09/16 12:56:32;;;;;;;1.50;1.40;;;;;;;;;;4693615;30;20266;-86
2021/09/16 12:59:01;;;;;;;1.70;1.60;;;;;;;;;;4698811;30;20235;-85
2021/09/16 13:02:27;;;;;;;2.00;1.90;;;;;;;;;;4699467;30;20717;-89
2021/09/16 13:05:02;;;;;;;3.55;2.97;;;;;;;;;;4697384;30;20210;-89
2021/09/16 13:07:33;;;;;;;2.05;1.95;;;;;;;;;;4701377;30;20613;-86
2021/09/16 13:10:13;;;;;;;2.15;2.05;;;;;;;;;;4701414;30;20272;-89
2021/09/16 13:12:43;;;;;;;2.30;2.20;;;;;;;;;;4701516;30;20259;-89
2021/09/16 13:15:13;;;;;;;1.60;1.50;;;;;;;;;;4699052;30;20249;-89
2021/09/16 13:17:42;;;;;;;2.78;2.58;;;;;;;;;;4690426;30;20695;-88
2021/09/16 13:20:14;;;;;;;2.67;2.17;;;;;;;;;;4701558;30;20634;-90
2021/09/16 13:22:41;;;;;;;2.55;2.30;;;;;;;;;;4700858;30;20237;-89
2021/09/16 13:25:11;;;;;;;2.30;2.10;;;;;;;;;;4701201;30;20203;-90
2021/09/16 13:27:39;;;;;;;2.97;2.63;;;;;;;;;;4700946;30;20260;-90
2021/09/16 13:30:10;;;;;;;2.22;2.13;;;;;;;;;;4701368;30;20599;-89
2021/09/16 13:32:42;;;;;;;2.60;2.35;;;;;;;;;;4701075;30;20249;-88
2021/09/16 13:35:11;;;;;;;2.13;2.03;;;;;;;;;;4699492;30;20595;-86
2021/09/16 13:37:39;;;;;;;2.05;1.95;;;;;;;;;;4700648;30;20286;-86
2021/09/16 13:40:09;;;;;;;2.30;2.10;;;;;;;;;;4700525;30;20206;-86
2021/09/16 13:42:38;;;;;;;1.98;1.88;;;;;;;;;;4700747;30;20230;-86
2021/09/16 13:45:07;;;;;;;2.60;2.10;;;;;;;;;;4700864;30;20210;-87
2021/09/16 13:47:35;;;;;;;2.92;2.30;;;;;;;;;;4700564;30;20226;-87
2021/09/16 13:50:04;;;;;;;2.15;1.95;;;;;;;;;;4698196;30;20305;-87
2021/09/16 13:52:33;;;;;;;1.75;1.65;;;;;;;;;;4699846;30;20245;-87
2021/09/16 13:55:01;;;;;;;1.63;1.52;;;;;;;;;;4700990;30;20695;-89
2021/09/16 13:57:28;;;;;;;1.80;1.70;;;;;;;;;;4702614;30;20245;-89
2021/09/16 13:59:56;;;;;;;1.30;1.20;;;;;;;;;;4702242;30;20686;-87
2021/09/16 14:02:24;;;;;;;2.08;1.98;;;;;;;;;;4700572;30;20298;-88
2021/09/16 14:04:51;;;;;;;1.63;1.52;;;;;;;;;;4702149;30;20214;-89
2021/09/16 14:07:20;;;;;;;1.80;1.70;;;;;;;;;;4700756;30;20237;-89
2021/09/16 14:09:48;;;;;;;1.38;1.30;;;;;;;;;;4700154;30;20289;-89
2021/09/16 14:12:16;;;;;;;2.00;1.90;;;;;;;;;;4700339;30;20202;-90
2021/09/16 14:14:45;;;;;;;2.63;2.15;;;;;;;;;;4699800;30;20198;-90
2021/09/16 14:17:13;;;;;;;3.08;2.88;;;;;;;;;;4700216;30;20289;-90
2021/09/16 14:19:40;;;;;;;2.85;2.65;;;;;;;;;;4699760;30;20199;-89
2021/09/16 14:22:08;;;;;;;2.67;2.47;;;;;;;;;;4698671;30;20301;-89
2021/09/16 14:25:20;;;;;;;2.22;2.10;;;;;;;;;;4698672;30;20222;-89
2021/09/16 14:27:47;;;;;;;2.55;2.35;;;;;;;;;;4699421;30;20261;-89
2021/09/16 14:30:15;;;;;;;2.90;2.35;;;;;;;;;;4699918;30;20211;-89
2021/09/16 14:32:43;;;;;;;1.90;1.75;;;;;;;;;;4700385;30;20221;-89
2021/09/16 14:35:11;;;;;;;2.75;2.55;;;;;;;;;;4700113;30;20202;-89
2021/09/16 14:37:38;;;;;;;2.17;2.08;;;;;;;;;;4699759;30;20234;-89
2021/09/16 14:40:08;;;;;;;3.72;3.42;;;;;;;;;;4700045;30;20215;-89
2021/09/16 14:42:37;;;;;;;3.35;3.05;;;;;;;;;;4699636;30;20235;-89
2021/09/16 14:45:06;;;;;;;2.72;2.53;;;;;;;;;;4699613;30;20202;-89
2021/09/16 14:47:33;;;;;;;3.58;3.20;;;;;;;;;;4699989;30;20238;-89
2021/09/16 14:50:01;;;;;;;2.92;2.72;;;;;;;;;;4699676;30;20214;-89
2021/09/16 14:52:28;;;;;;;2.13;2.03;;;;;;;;;;4699459;30;20214;-89
2021/09/16 14:54:55;;;;;;;2.92;2.72;;;;;;;;;;4699721;30;20225;-89
2021/09/16 14:57:23;;;;;;;2.30;2.10;;;;;;;;;;4700116;30;20244;-88
2021/09/16 14:59:52;;;;;;;3.10;2.80;;;;;;;;;;4699663;30;20215;-90
2021/09/16 15:02:19;;;;;;;2.65;2.45;;;;;;;;;;4701692;30;20225;-89
2021/09/16 15:04:46;;;;;;;2.85;2.65;;;;;;;;;;4699111;30;20214;-90
2021/09/16 15:07:14;;;;;;;3.40;3.10;;;;;;;;;;4699853;30;20253;-89
2021/09/16 15:09:41;;;;;;;2.50;2.30;;;;;;;;;;4699623;30;20222;-88
2021/09/16 15:12:09;;;;;;;2.13;2.03;;;;;;;;;;4699639;30;20218;-88
2021/09/16 15:14:37;;;;;;;2.03;1.92;;;;;;;;;;4700065;30;20210;-89
2021/09/16 15:17:06;;;;;;;2.72;2.53;;;;;;;;;;4699231;30;20772;-90
2021/09/16 15:19:34;;;;;;;3.35;3.15;;;;;;;;;;4699235;30;20714;-88